KSPA/SPA METAR and TAF weather

Enter ICAO airport designator
Station Type Date Time Source
KSPA METAR 2021/01/20 22:35 UTC NOAA

KSPA 202235Z AUTO 00000KT 10SM CLR 12/M08 A3011 RMK AO2


Station Type Date Time Source
KSPA Decoded METAR 2021/01/20 22:35 UTC NOAA

Spartanburg Memorial, SC, United States (KSPA) 34-55N 081-57W
Jan 20, 2021 - 05:35 PM EST / 2021.01.20 2235 UTC
Wind: Calm:0
Visibility: 10 mile(s):0
Sky conditions: clear
Temperature: 53 F (12 C)
Dew Point: 17 F (-8 C)
Relative Humidity: 23%
Pressure (altimeter): 30.11 in. Hg (1019 hPa)
ob: KSPA 202235Z AUTO 00000KT 10SM CLR 12/M08 A3011 RMK AO2
cycle: 22

Station Type Date Time Source
KSPA TAF UTC NOAA

Error!

Example: see airport list